createdAt,value
2018-03-18T00:00:18.314Z,976.12
2018-03-18T00:01:18.227Z,976.08
2018-03-18T00:02:18.141Z,976.08
2018-03-18T00:03:18.053Z,976.08
2018-03-18T00:04:17.964Z,976.04
2018-03-18T00:05:17.877Z,976.06
2018-03-18T00:06:17.791Z,976.09
2018-03-18T00:07:17.703Z,976.07
2018-03-18T00:08:17.765Z,976.08
2018-03-18T00:09:17.528Z,976.04
2018-03-18T00:10:17.440Z,976.00
2018-03-18T00:11:17.353Z,976.08
2018-03-18T00:12:17.265Z,976.06
2018-03-18T00:13:17.178Z,976.03
2018-03-18T00:14:17.091Z,976.06
2018-03-18T00:15:17.003Z,976.12
2018-03-18T00:16:16.915Z,976.09
2018-03-18T00:17:16.828Z,976.04
2018-03-18T00:18:16.741Z,976.08
2018-03-18T00:19:16.653Z,976.09
2018-03-18T00:20:16.565Z,976.11
2018-03-18T00:21:16.478Z,976.08
2018-03-18T00:22:16.390Z,976.09
2018-03-18T00:23:16.303Z,976.07
2018-03-18T00:24:16.214Z,976.11
2018-03-18T00:25:16.127Z,976.11
2018-03-18T00:26:16.040Z,976.17
2018-03-18T00:27:15.953Z,976.13
2018-03-18T00:28:15.864Z,976.13
2018-03-18T00:29:15.779Z,976.11
2018-03-18T00:30:15.693Z,976.11
2018-03-18T00:31:15.604Z,976.11
2018-03-18T00:32:15.514Z,976.10
2018-03-18T00:33:15.427Z,976.12
2018-03-18T00:34:15.341Z,976.11
2018-03-18T00:35:15.260Z,976.12
2018-03-18T00:36:15.164Z,976.18
2018-03-18T00:37:15.075Z,976.15
2018-03-18T00:38:14.989Z,976.09
2018-03-18T00:39:14.901Z,976.15
2018-03-18T00:40:14.813Z,976.10
2018-03-18T00:41:14.726Z,976.12
2018-03-18T00:42:14.639Z,976.15
2018-03-18T00:43:14.551Z,976.15
2018-03-18T00:44:14.463Z,976.13
2018-03-18T00:45:14.379Z,976.16
2018-03-18T00:46:14.289Z,976.15
2018-03-18T00:47:14.202Z,976.18
2018-03-18T00:48:14.113Z,976.15
2018-03-18T00:49:14.026Z,976.12
2018-03-18T00:50:13.939Z,976.14
2018-03-18T00:51:13.852Z,976.15
2018-03-18T00:52:13.763Z,976.08
2018-03-18T00:53:13.675Z,976.17
2018-03-18T00:54:13.646Z,976.14
2018-03-18T00:55:13.502Z,976.10
2018-03-18T00:56:13.415Z,976.22
2018-03-18T00:57:13.325Z,976.21
2018-03-18T00:58:13.238Z,976.23
2018-03-18T00:59:13.151Z,976.13
2018-03-18T01:00:13.062Z,976.15
2018-03-18T01:01:12.976Z,976.17
2018-03-18T01:02:12.888Z,976.15
2018-03-18T01:03:12.802Z,976.13
2018-03-18T01:04:12.713Z,976.13
2018-03-18T01:05:12.637Z,976.10
2018-03-18T01:06:12.538Z,976.14
2018-03-18T01:07:12.451Z,976.13
2018-03-18T01:08:12.362Z,976.12
2018-03-18T01:09:12.275Z,976.14
2018-03-18T01:10:12.188Z,976.18
2018-03-18T01:11:12.101Z,976.19
2018-03-18T01:12:12.012Z,976.16
2018-03-18T01:13:11.923Z,976.17
2018-03-18T01:14:11.837Z,976.17
2018-03-18T01:15:11.749Z,976.11
2018-03-18T01:16:11.661Z,976.18
2018-03-18T01:17:11.573Z,976.21
2018-03-18T01:18:11.486Z,976.15
2018-03-18T01:19:11.398Z,976.10
2018-03-18T01:20:11.310Z,976.07
2018-03-18T01:21:11.223Z,976.10
2018-03-18T01:22:11.134Z,976.08
2018-03-18T01:23:11.048Z,976.06
2018-03-18T01:24:10.959Z,976.08
2018-03-18T01:25:10.877Z,976.11
2018-03-18T01:26:10.785Z,976.04
2018-03-18T01:27:10.697Z,976.08
2018-03-18T01:28:10.609Z,976.06
2018-03-18T01:29:10.521Z,976.07
2018-03-18T01:30:10.434Z,976.04
2018-03-18T01:31:10.347Z,976.09
2018-03-18T01:32:10.258Z,976.09
2018-03-18T01:33:10.171Z,976.07
2018-03-18T01:34:10.084Z,976.04
2018-03-18T01:35:10.000Z,975.99
2018-03-18T01:36:09.908Z,976.05
2018-03-18T01:37:09.820Z,975.98
2018-03-18T01:38:09.732Z,976.00
2018-03-18T01:39:09.646Z,976.02
2018-03-18T01:40:09.557Z,976.00
2018-03-18T01:41:09.470Z,976.02
2018-03-18T01:42:09.383Z,975.98
2018-03-18T01:43:09.322Z,976.00
2018-03-18T01:44:09.207Z,976.03
2018-03-18T01:45:09.120Z,975.98
2018-03-18T01:46:09.031Z,975.98
2018-03-18T01:47:08.947Z,975.96
2018-03-18T01:48:08.856Z,975.87
2018-03-18T01:49:08.769Z,975.94
2018-03-18T01:50:08.682Z,975.96
2018-03-18T01:51:08.594Z,975.88
2018-03-18T01:52:08.506Z,975.88
2018-03-18T01:53:08.420Z,975.86
2018-03-18T01:54:08.332Z,975.87
2018-03-18T01:55:08.245Z,975.87
2018-03-18T01:56:08.156Z,975.81
2018-03-18T01:57:08.071Z,975.83
2018-03-18T01:58:07.982Z,975.80
2018-03-18T01:59:07.894Z,975.79
2018-03-18T02:00:07.809Z,975.83
2018-03-18T02:01:07.719Z,975.80
2018-03-18T02:02:07.631Z,975.84
2018-03-18T02:03:07.545Z,975.79
2018-03-18T02:04:07.454Z,975.78
2018-03-18T02:05:07.371Z,975.76
2018-03-18T02:06:07.281Z,975.76
2018-03-18T02:07:07.195Z,975.73
2018-03-18T02:08:07.105Z,975.75
2018-03-18T02:09:07.018Z,975.72
2018-03-18T02:10:06.931Z,975.72
2018-03-18T02:11:06.891Z,975.72
2018-03-18T02:12:06.755Z,975.71
2018-03-18T02:13:06.666Z,975.68
2018-03-18T02:14:06.580Z,975.67
2018-03-18T02:15:06.492Z,975.68
2018-03-18T02:16:06.404Z,975.67
2018-03-18T02:17:06.316Z,975.71
2018-03-18T02:18:06.229Z,975.71
2018-03-18T02:19:06.142Z,975.70
2018-03-18T02:20:06.054Z,975.72
2018-03-18T02:21:05.966Z,975.74
2018-03-18T02:22:05.878Z,975.73
2018-03-18T02:23:05.806Z,975.68
2018-03-18T02:24:05.708Z,975.68
2018-03-18T02:25:05.622Z,975.65
2018-03-18T02:26:05.528Z,975.65
2018-03-18T02:27:05.441Z,975.71
2018-03-18T02:28:05.351Z,975.60
2018-03-18T02:29:05.265Z,975.71
2018-03-18T02:30:05.181Z,975.66
2018-03-18T02:31:05.091Z,975.68
2018-03-18T02:32:05.005Z,975.59
2018-03-18T02:33:04.914Z,975.64
2018-03-18T02:34:04.827Z,975.59
2018-03-18T02:35:04.741Z,975.62
2018-03-18T02:36:04.664Z,975.59
2018-03-18T02:37:04.563Z,975.57
2018-03-18T02:38:04.476Z,975.65
2018-03-18T02:39:04.389Z,975.56
2018-03-18T02:40:04.304Z,975.58
2018-03-18T02:41:04.213Z,975.54
2018-03-18T02:42:04.125Z,975.58
2018-03-18T02:43:04.036Z,975.57
2018-03-18T02:44:03.949Z,975.55
2018-03-18T02:45:03.865Z,975.50
2018-03-18T02:46:03.774Z,975.52
2018-03-18T02:47:03.685Z,975.55
2018-03-18T02:48:03.597Z,975.57
2018-03-18T02:49:03.512Z,975.58
2018-03-18T02:50:03.422Z,975.53
2018-03-18T02:51:03.334Z,975.54
2018-03-18T02:52:03.252Z,975.50
2018-03-18T02:53:03.169Z,975.52
2018-03-18T02:54:03.071Z,975.53
2018-03-18T02:55:02.983Z,975.50
2018-03-18T02:56:02.894Z,975.51
2018-03-18T02:57:02.807Z,975.53
2018-03-18T02:58:02.719Z,975.54
2018-03-18T02:59:02.781Z,975.51
2018-03-18T03:00:02.545Z,975.48
2018-03-18T03:01:02.459Z,975.49
2018-03-18T03:02:02.367Z,975.48
2018-03-18T03:03:02.279Z,975.51
2018-03-18T03:04:02.193Z,975.49
2018-03-18T03:05:02.103Z,975.57
2018-03-18T03:06:02.015Z,975.47
2018-03-18T03:07:01.929Z,975.53
2018-03-18T03:08:01.841Z,975.51
2018-03-18T03:09:01.750Z,975.51
2018-03-18T03:10:01.663Z,975.51
2018-03-18T03:11:01.581Z,975.48
2018-03-18T03:12:01.487Z,975.50
2018-03-18T03:13:01.399Z,975.54
2018-03-18T03:14:01.313Z,975.52
2018-03-18T03:15:01.224Z,975.57
2018-03-18T03:16:01.134Z,975.47
2018-03-18T03:17:01.047Z,975.50
2018-03-18T03:18:00.962Z,975.51
2018-03-18T03:19:00.871Z,975.51
2018-03-18T03:20:00.783Z,975.49
2018-03-18T03:21:00.695Z,975.51
2018-03-18T03:22:00.607Z,975.49
2018-03-18T03:23:00.520Z,975.53
2018-03-18T03:24:00.430Z,975.54
2018-03-18T03:25:00.343Z,975.51
2018-03-18T03:26:00.255Z,975.52
2018-03-18T03:27:00.167Z,975.54
2018-03-18T03:28:00.079Z,975.54
2018-03-18T03:28:59.992Z,975.56
2018-03-18T03:29:59.903Z,975.60
2018-03-18T03:30:59.816Z,975.59
2018-03-18T03:31:59.726Z,975.56
2018-03-18T03:32:59.639Z,975.58
2018-03-18T03:33:59.549Z,975.59
2018-03-18T03:34:59.465Z,975.59
2018-03-18T03:35:59.372Z,975.63
2018-03-18T03:36:59.284Z,975.63
2018-03-18T03:37:59.197Z,975.61
2018-03-18T03:38:59.108Z,975.65
2018-03-18T03:39:59.023Z,975.67
2018-03-18T03:40:58.931Z,975.67
2018-03-18T03:41:58.843Z,975.62
2018-03-18T03:42:58.755Z,975.59
2018-03-18T03:43:58.666Z,975.65
2018-03-18T03:44:58.578Z,975.64
2018-03-18T03:45:58.491Z,975.63
2018-03-18T03:46:58.403Z,975.66
2018-03-18T03:47:58.314Z,975.64
2018-03-18T03:48:58.225Z,975.68
2018-03-18T03:49:58.137Z,975.69
2018-03-18T03:50:58.050Z,975.65
2018-03-18T03:51:57.961Z,975.67
2018-03-18T03:52:57.872Z,975.62
2018-03-18T03:53:57.785Z,975.61
2018-03-18T03:54:57.696Z,975.63
2018-03-18T03:55:57.607Z,975.66
2018-03-18T03:56:57.520Z,975.63
2018-03-18T03:57:57.431Z,975.62
2018-03-18T03:58:57.343Z,975.63
2018-03-18T03:59:57.256Z,975.60
2018-03-18T04:00:57.166Z,975.63
2018-03-18T04:01:57.077Z,975.62
2018-03-18T04:02:56.990Z,975.65
2018-03-18T04:03:56.900Z,975.65
2018-03-18T04:04:56.811Z,975.66
2018-03-18T04:05:56.724Z,975.66
2018-03-18T04:06:56.636Z,975.67
2018-03-18T04:07:56.546Z,975.70
2018-03-18T04:08:56.458Z,975.73
2018-03-18T04:09:56.370Z,975.70
2018-03-18T04:10:56.287Z,975.68
2018-03-18T04:11:56.192Z,975.71
2018-03-18T04:12:56.104Z,975.70
2018-03-18T04:13:56.017Z,975.75
2018-03-18T04:14:55.928Z,975.75
2018-03-18T04:15:55.838Z,975.74
2018-03-18T04:16:55.752Z,975.71
2018-03-18T04:17:55.663Z,975.71
2018-03-18T04:18:55.581Z,975.76
2018-03-18T04:19:55.486Z,975.73
2018-03-18T04:20:55.399Z,975.73
2018-03-18T04:21:55.309Z,975.74
2018-03-18T04:22:55.221Z,975.72
2018-03-18T04:23:55.132Z,975.74
2018-03-18T04:24:55.043Z,975.76
2018-03-18T04:25:54.957Z,975.74
2018-03-18T04:26:54.870Z,975.77
2018-03-18T04:27:54.779Z,975.76
2018-03-18T04:28:54.694Z,975.74
2018-03-18T04:29:54.603Z,975.72
2018-03-18T04:30:54.515Z,975.78
2018-03-18T04:31:54.426Z,975.76
2018-03-18T04:32:54.338Z,975.75
2018-03-18T04:33:54.295Z,975.73
2018-03-18T04:34:54.162Z,975.71
2018-03-18T04:35:54.074Z,975.76
2018-03-18T04:36:53.986Z,975.76
2018-03-18T04:37:53.898Z,975.76
2018-03-18T04:38:53.809Z,975.73
2018-03-18T04:39:53.720Z,975.77
2018-03-18T04:40:53.633Z,975.74
2018-03-18T04:41:53.544Z,975.80
2018-03-18T04:42:53.457Z,975.80
2018-03-18T04:43:53.368Z,975.79
2018-03-18T04:44:53.280Z,975.79
2018-03-18T04:45:53.192Z,975.87
2018-03-18T04:46:53.104Z,975.80
2018-03-18T04:47:53.016Z,975.83
2018-03-18T04:48:52.928Z,975.87
2018-03-18T04:49:52.841Z,975.81
2018-03-18T04:50:52.752Z,975.83
2018-03-18T04:51:52.663Z,975.88
2018-03-18T04:52:52.578Z,975.88
2018-03-18T04:53:52.488Z,975.90
2018-03-18T04:54:52.401Z,975.95
2018-03-18T04:55:52.314Z,975.89
2018-03-18T04:56:52.224Z,975.92
2018-03-18T04:57:52.136Z,975.87
2018-03-18T04:58:52.048Z,975.89
2018-03-18T04:59:51.960Z,975.90
2018-03-18T05:00:51.872Z,975.88
2018-03-18T05:01:51.783Z,975.93
2018-03-18T05:02:51.696Z,975.90
2018-03-18T05:03:51.606Z,975.90
2018-03-18T05:04:51.520Z,975.90
2018-03-18T05:05:51.433Z,975.92
2018-03-18T05:06:51.344Z,975.95
2018-03-18T05:07:51.253Z,975.87
2018-03-18T05:08:51.166Z,975.90
2018-03-18T05:09:51.079Z,975.87
2018-03-18T05:10:50.990Z,975.85
2018-03-18T05:11:50.901Z,975.93
2018-03-18T05:12:50.824Z,975.96
2018-03-18T05:13:50.725Z,975.96
2018-03-18T05:14:50.987Z,975.97
2018-03-18T05:15:50.548Z,975.98
2018-03-18T05:16:50.460Z,976.00
2018-03-18T05:17:50.372Z,975.98
2018-03-18T05:18:50.284Z,976.01
2018-03-18T05:19:50.194Z,975.96
2018-03-18T05:20:50.107Z,976.01
2018-03-18T05:21:50.019Z,976.05
2018-03-18T05:22:49.931Z,975.98
2018-03-18T05:23:49.842Z,975.98
2018-03-18T05:24:49.754Z,976.01
2018-03-18T05:25:49.666Z,975.98
2018-03-18T05:26:49.578Z,976.07
2018-03-18T05:27:49.490Z,976.05
2018-03-18T05:28:49.401Z,976.04
2018-03-18T05:29:49.312Z,976.08
2018-03-18T05:30:49.225Z,976.04
2018-03-18T05:31:49.136Z,976.04
2018-03-18T05:32:49.048Z,976.04
2018-03-18T05:33:48.960Z,976.06
2018-03-18T05:34:48.871Z,976.09
2018-03-18T05:35:48.783Z,976.14
2018-03-18T05:36:48.695Z,976.08
2018-03-18T05:37:48.605Z,976.16
2018-03-18T05:38:48.518Z,976.08
2018-03-18T05:39:48.429Z,976.15
2018-03-18T05:40:48.342Z,976.17
2018-03-18T05:41:48.254Z,976.14
2018-03-18T05:42:48.167Z,976.19
2018-03-18T05:43:48.080Z,976.23
2018-03-18T05:44:47.989Z,976.26
2018-03-18T05:45:47.902Z,976.19
2018-03-18T05:46:47.813Z,976.18
2018-03-18T05:47:47.724Z,976.25
2018-03-18T05:48:47.636Z,976.27
2018-03-18T05:49:47.548Z,976.22
2018-03-18T05:50:47.460Z,976.27
2018-03-18T05:51:47.371Z,976.28
2018-03-18T05:52:47.284Z,976.32
2018-03-18T05:53:47.196Z,976.32
2018-03-18T05:54:47.120Z,976.28
2018-03-18T05:55:47.019Z,976.28
2018-03-18T05:56:46.931Z,976.27
2018-03-18T05:57:46.843Z,976.37
2018-03-18T05:58:46.761Z,976.33
2018-03-18T05:59:46.670Z,976.43
2018-03-18T06:00:46.979Z,976.37
2018-03-18T06:01:46.491Z,976.40
2018-03-18T06:02:46.402Z,976.38
2018-03-18T06:03:46.314Z,976.43
2018-03-18T06:04:46.226Z,976.38
2018-03-18T06:05:46.138Z,976.43
2018-03-18T06:06:46.051Z,976.40
2018-03-18T06:07:45.961Z,976.38
2018-03-18T06:08:45.873Z,976.48
2018-03-18T06:09:45.785Z,976.43
2018-03-18T06:10:45.698Z,976.42
2018-03-18T06:11:45.758Z,976.47
2018-03-18T06:12:45.521Z,976.49
2018-03-18T06:13:45.433Z,976.45
2018-03-18T06:14:45.344Z,976.47
2018-03-18T06:15:45.258Z,976.44
2018-03-18T06:16:45.168Z,976.51
2018-03-18T06:17:45.080Z,976.44
2018-03-18T06:18:44.992Z,976.47
2018-03-18T06:19:44.903Z,976.45
2018-03-18T06:20:44.816Z,976.53
2018-03-18T06:21:44.726Z,976.45
2018-03-18T06:22:44.639Z,976.53
2018-03-18T06:23:44.550Z,976.54
2018-03-18T06:24:44.478Z,976.53
2018-03-18T06:25:44.376Z,976.50
2018-03-18T06:26:44.287Z,976.58
2018-03-18T06:27:44.201Z,976.59
2018-03-18T06:28:44.109Z,976.57
2018-03-18T06:29:44.021Z,976.61
2018-03-18T06:30:43.934Z,976.65
2018-03-18T06:31:43.844Z,976.59
2018-03-18T06:32:43.757Z,976.66
2018-03-18T06:33:43.668Z,976.68
2018-03-18T06:34:43.580Z,976.76
2018-03-18T06:35:43.492Z,976.69
2018-03-18T06:36:43.403Z,976.65
2018-03-18T06:37:43.316Z,976.75
2018-03-18T06:38:43.231Z,976.74
2018-03-18T06:39:43.140Z,976.73
2018-03-18T06:40:43.056Z,976.75
2018-03-18T06:41:42.965Z,976.74
2018-03-18T06:42:42.878Z,976.79
2018-03-18T06:43:42.788Z,976.75
2018-03-18T06:44:42.700Z,976.79
2018-03-18T06:45:42.611Z,976.76
2018-03-18T06:46:42.524Z,976.81
2018-03-18T06:47:42.456Z,976.77
2018-03-18T06:48:42.347Z,976.84
2018-03-18T06:49:42.259Z,976.74
2018-03-18T06:50:42.172Z,976.85
2018-03-18T06:51:42.082Z,976.88
2018-03-18T06:52:41.995Z,976.84
2018-03-18T06:53:41.906Z,976.85
2018-03-18T06:54:41.818Z,976.87
2018-03-18T06:55:41.733Z,976.84
2018-03-18T06:56:41.641Z,976.86
2018-03-18T06:57:41.554Z,976.90
2018-03-18T06:58:41.466Z,976.88
2018-03-18T06:59:41.377Z,976.88
2018-03-18T07:00:41.292Z,976.92
2018-03-18T07:01:41.202Z,976.81
2018-03-18T07:02:41.114Z,976.92
2018-03-18T07:03:41.024Z,976.90
2018-03-18T07:04:40.942Z,976.92
2018-03-18T07:05:40.848Z,976.89
2018-03-18T07:06:40.761Z,977.01
2018-03-18T07:07:40.672Z,976.97
2018-03-18T07:08:40.585Z,976.95
2018-03-18T07:09:40.497Z,977.01
2018-03-18T07:10:40.409Z,976.98
2018-03-18T07:11:40.320Z,977.00
2018-03-18T07:12:40.232Z,977.01
2018-03-18T07:13:40.144Z,977.05
2018-03-18T07:14:40.057Z,977.04
2018-03-18T07:15:39.968Z,977.03
2018-03-18T07:16:39.887Z,977.09
2018-03-18T07:17:39.794Z,977.06
2018-03-18T07:18:39.706Z,977.10
2018-03-18T07:19:39.617Z,977.08
2018-03-18T07:20:39.528Z,977.12
2018-03-18T07:21:39.441Z,977.14
2018-03-18T07:22:39.356Z,977.12
2018-03-18T07:23:39.263Z,977.15
2018-03-18T07:24:39.177Z,977.16
2018-03-18T07:25:39.089Z,977.14
2018-03-18T07:26:39.002Z,977.08
2018-03-18T07:27:38.913Z,977.12
2018-03-18T07:28:38.825Z,977.13
2018-03-18T07:29:38.740Z,977.20
2018-03-18T07:30:38.653Z,977.17
2018-03-18T07:31:38.568Z,977.16
2018-03-18T07:32:38.474Z,977.23
2018-03-18T07:33:38.388Z,977.18
2018-03-18T07:34:38.305Z,977.22
2018-03-18T07:35:38.212Z,977.23
2018-03-18T07:36:38.123Z,977.22
2018-03-18T07:37:38.037Z,977.24
2018-03-18T07:38:37.976Z,977.20
2018-03-18T07:39:37.860Z,977.24
2018-03-18T07:40:37.774Z,977.28
2018-03-18T07:41:37.686Z,977.25
2018-03-18T07:42:37.599Z,977.30
2018-03-18T07:43:37.510Z,977.31
2018-03-18T07:44:37.423Z,977.32
2018-03-18T07:45:37.337Z,977.33
2018-03-18T07:46:37.251Z,977.30
2018-03-18T07:47:37.161Z,977.31
2018-03-18T07:48:37.073Z,977.33
2018-03-18T07:49:36.986Z,977.34
2018-03-18T07:50:36.898Z,977.33
2018-03-18T07:51:36.810Z,977.33
2018-03-18T07:52:36.722Z,977.38
2018-03-18T07:53:36.635Z,977.39
2018-03-18T07:54:36.548Z,977.34
2018-03-18T07:55:36.459Z,977.42
2018-03-18T07:56:36.373Z,977.39
2018-03-18T07:57:36.284Z,977.44
2018-03-18T07:58:36.197Z,977.53
2018-03-18T07:59:36.109Z,977.41
2018-03-18T08:00:36.022Z,977.49
2018-03-18T08:01:35.940Z,977.46
2018-03-18T08:02:35.847Z,977.47
2018-03-18T08:03:35.789Z,977.55
2018-03-18T08:04:35.673Z,977.57
2018-03-18T08:05:35.584Z,977.54
2018-03-18T08:06:35.497Z,977.62
2018-03-18T08:07:35.409Z,977.62
2018-03-18T08:08:35.322Z,977.63
2018-03-18T08:09:35.238Z,977.69
2018-03-18T08:10:35.147Z,977.69
2018-03-18T08:11:35.059Z,977.70
2018-03-18T08:12:34.974Z,977.66
2018-03-18T08:13:34.884Z,977.64
2018-03-18T08:14:34.798Z,977.67
2018-03-18T08:15:34.713Z,977.62
2018-03-18T08:16:34.773Z,977.68
2018-03-18T08:17:34.535Z,977.69
2018-03-18T08:18:34.448Z,977.66
2018-03-18T08:19:34.362Z,977.73
2018-03-18T08:20:34.274Z,977.74
2018-03-18T08:21:34.188Z,977.75
2018-03-18T08:22:34.099Z,977.80
2018-03-18T08:23:34.012Z,977.79
2018-03-18T08:24:33.925Z,977.82
2018-03-18T08:25:33.838Z,977.78
2018-03-18T08:26:33.751Z,977.80
2018-03-18T08:27:33.663Z,977.79
2018-03-18T08:28:33.577Z,977.76
2018-03-18T08:29:33.490Z,977.78
2018-03-18T08:30:33.402Z,977.79
2018-03-18T08:31:33.315Z,977.77
2018-03-18T08:32:33.228Z,977.77
2018-03-18T08:33:33.148Z,977.75
2018-03-18T08:34:33.054Z,977.69
2018-03-18T08:35:32.966Z,977.83
2018-03-18T08:36:32.880Z,977.77
2018-03-18T08:37:32.793Z,977.75
2018-03-18T08:38:32.706Z,977.80
2018-03-18T08:39:32.619Z,977.85
2018-03-18T08:40:32.532Z,977.82
2018-03-18T08:41:32.446Z,977.86
2018-03-18T08:42:32.358Z,977.83
2018-03-18T08:43:32.271Z,977.85
2018-03-18T08:44:32.189Z,977.87
2018-03-18T08:45:32.098Z,977.87
2018-03-18T08:46:32.011Z,977.82
2018-03-18T08:47:31.924Z,977.82
2018-03-18T08:48:31.836Z,977.83
2018-03-18T08:49:31.799Z,977.82
2018-03-18T08:50:31.668Z,977.85
2018-03-18T08:51:31.576Z,977.90
2018-03-18T08:52:31.493Z,977.88
2018-03-18T08:53:31.403Z,977.89
2018-03-18T08:54:31.318Z,977.97
2018-03-18T08:55:31.231Z,977.95
2018-03-18T08:56:31.142Z,978.03
2018-03-18T08:57:31.059Z,978.01
2018-03-18T08:58:30.970Z,977.92
2018-03-18T08:59:30.882Z,977.99
2018-03-18T09:00:30.796Z,977.95
2018-03-18T09:01:30.709Z,978.00
2018-03-18T09:02:30.622Z,978.03
2018-03-18T09:03:30.534Z,978.04
2018-03-18T09:04:30.448Z,978.06
2018-03-18T09:05:30.362Z,978.06
2018-03-18T09:06:30.276Z,977.99
2018-03-18T09:07:30.188Z,978.02
2018-03-18T09:08:30.102Z,978.04
2018-03-18T09:09:30.016Z,978.06
2018-03-18T09:10:29.930Z,978.05
2018-03-18T09:11:29.842Z,978.08
2018-03-18T09:12:29.756Z,977.99
2018-03-18T09:13:29.670Z,978.05
2018-03-18T09:14:29.585Z,978.10
2018-03-18T09:15:29.501Z,978.07
2018-03-18T09:16:29.411Z,978.07
2018-03-18T09:17:29.324Z,978.06
2018-03-18T09:18:29.238Z,978.01
2018-03-18T09:19:29.150Z,977.99
2018-03-18T09:20:29.065Z,978.03
2018-03-18T09:21:28.978Z,978.06
2018-03-18T09:22:28.893Z,978.11
2018-03-18T09:23:28.804Z,978.03
2018-03-18T09:24:28.717Z,978.05
2018-03-18T09:25:28.631Z,978.10
2018-03-18T09:26:28.546Z,978.07
2018-03-18T09:27:28.458Z,978.10
2018-03-18T09:28:28.373Z,978.15
2018-03-18T09:29:28.292Z,978.10
2018-03-18T09:30:28.200Z,978.13
2018-03-18T09:31:28.113Z,978.13
2018-03-18T09:32:28.027Z,978.08
2018-03-18T09:33:27.946Z,978.10
2018-03-18T09:34:27.855Z,978.11
2018-03-18T09:35:27.771Z,978.17
2018-03-18T09:36:27.681Z,978.10
2018-03-18T09:37:27.595Z,978.06
2018-03-18T09:38:27.509Z,978.13
2018-03-18T09:39:27.422Z,978.13
2018-03-18T09:40:27.336Z,978.06
2018-03-18T09:41:27.250Z,978.14
2018-03-18T09:42:27.164Z,978.17
2018-03-18T09:43:27.077Z,978.08
2018-03-18T09:44:26.991Z,978.09
2018-03-18T09:45:26.905Z,978.11
2018-03-18T09:46:26.819Z,978.16
2018-03-18T09:47:26.732Z,978.14
2018-03-18T09:48:26.646Z,978.11
2018-03-18T09:49:26.563Z,978.08
2018-03-18T09:50:26.474Z,978.16
2018-03-18T09:51:26.389Z,978.12
2018-03-18T09:52:26.302Z,978.11
2018-03-18T09:53:26.216Z,978.13
2018-03-18T09:54:26.130Z,978.13
2018-03-18T09:55:26.043Z,978.10
2018-03-18T09:56:25.969Z,978.14
2018-03-18T09:57:25.872Z,978.20
2018-03-18T09:58:25.788Z,978.14
2018-03-18T09:59:25.733Z,978.15
2018-03-18T10:00:25.612Z,978.14
2018-03-18T10:01:25.529Z,978.19
2018-03-18T10:02:25.440Z,978.05
2018-03-18T10:03:25.354Z,978.10
2018-03-18T10:04:25.267Z,978.11
2018-03-18T10:05:25.199Z,978.10
2018-03-18T10:06:25.096Z,978.15
2018-03-18T10:07:25.009Z,978.11
2018-03-18T10:08:24.923Z,978.11
2018-03-18T10:09:24.838Z,978.10
2018-03-18T10:10:24.751Z,978.16
2018-03-18T10:11:24.664Z,978.18
2018-03-18T10:12:24.577Z,978.17
2018-03-18T10:13:24.492Z,978.15
2018-03-18T10:14:24.415Z,978.14
2018-03-18T10:15:24.319Z,978.25
2018-03-18T10:16:24.234Z,978.16
2018-03-18T10:17:24.148Z,978.17
2018-03-18T10:18:24.061Z,978.14
2018-03-18T10:19:23.981Z,978.21
2018-03-18T10:20:23.947Z,978.18
2018-03-18T10:21:23.803Z,978.21
2018-03-18T10:22:23.717Z,978.24
2018-03-18T10:23:23.635Z,978.22
2018-03-18T10:24:23.544Z,978.19
2018-03-18T10:25:23.459Z,978.22
2018-03-18T10:26:23.372Z,978.20
2018-03-18T10:27:23.287Z,978.24
2018-03-18T10:28:23.200Z,978.22
2018-03-18T10:29:23.115Z,978.24
2018-03-18T10:30:23.030Z,978.23
2018-03-18T10:31:22.953Z,978.28
2018-03-18T10:32:22.858Z,978.23
2018-03-18T10:33:22.773Z,978.28
2018-03-18T10:34:22.688Z,978.26
2018-03-18T10:35:22.600Z,978.25
2018-03-18T10:36:22.515Z,978.31
2018-03-18T10:37:22.434Z,978.35
2018-03-18T10:38:22.352Z,978.30
2018-03-18T10:39:22.258Z,978.29
2018-03-18T10:40:22.178Z,978.33
2018-03-18T10:41:22.088Z,978.31
2018-03-18T10:42:22.003Z,978.31
2018-03-18T10:43:21.917Z,978.29
2018-03-18T10:44:21.832Z,978.28
2018-03-18T10:45:21.746Z,978.37
2018-03-18T10:46:21.662Z,978.45
2018-03-18T10:47:21.575Z,978.39
2018-03-18T10:48:21.489Z,978.40
2018-03-18T10:49:21.406Z,978.32
2018-03-18T10:50:21.319Z,978.41
2018-03-18T10:51:21.234Z,978.39
2018-03-18T10:52:21.147Z,978.30
2018-03-18T10:53:21.062Z,978.46
2018-03-18T10:54:20.977Z,978.37
2018-03-18T10:55:20.914Z,978.39
2018-03-18T10:56:20.805Z,978.38
2018-03-18T10:57:20.720Z,978.34
2018-03-18T10:58:20.642Z,978.36
2018-03-18T10:59:20.552Z,978.35
2018-03-18T11:00:20.462Z,978.42
2018-03-18T11:01:20.403Z,978.27
2018-03-18T11:02:20.290Z,978.39
2018-03-18T11:03:20.205Z,978.37
2018-03-18T11:04:20.124Z,978.39
2018-03-18T11:05:20.033Z,978.42
2018-03-18T11:06:19.948Z,978.37
2018-03-18T11:07:19.862Z,978.38
2018-03-18T11:08:19.777Z,978.40
2018-03-18T11:09:19.692Z,978.42
2018-03-18T11:10:19.606Z,978.47
2018-03-18T11:11:19.520Z,978.47
2018-03-18T11:12:19.436Z,978.58
2018-03-18T11:13:19.350Z,978.47
2018-03-18T11:14:19.266Z,978.47
2018-03-18T11:15:19.180Z,978.48
2018-03-18T11:16:19.127Z,978.49
2018-03-18T11:17:19.011Z,978.49
2018-03-18T11:18:18.925Z,978.41
2018-03-18T11:19:18.839Z,978.53
2018-03-18T11:20:18.754Z,978.49
2018-03-18T11:21:18.669Z,978.48
2018-03-18T11:22:18.593Z,978.47
2018-03-18T11:23:18.499Z,978.48
2018-03-18T11:24:18.414Z,978.49
2018-03-18T11:25:18.329Z,978.53
2018-03-18T11:26:18.244Z,978.50
2018-03-18T11:27:18.160Z,978.45
2018-03-18T11:28:18.073Z,978.45
2018-03-18T11:29:17.990Z,978.50
2018-03-18T11:30:17.906Z,978.45
2018-03-18T11:31:17.821Z,978.43
2018-03-18T11:32:17.736Z,978.40
2018-03-18T11:33:17.652Z,978.47
2018-03-18T11:34:17.568Z,978.48
2018-03-18T11:35:17.483Z,978.47
2018-03-18T11:36:17.399Z,978.51
2018-03-18T11:37:17.315Z,978.48
2018-03-18T11:38:17.231Z,978.52
2018-03-18T11:39:17.147Z,978.56
2018-03-18T11:40:17.063Z,978.56
2018-03-18T11:41:16.979Z,978.58
2018-03-18T11:42:16.895Z,978.52
2018-03-18T11:43:16.811Z,978.57
2018-03-18T11:44:16.727Z,978.50
2018-03-18T11:45:16.643Z,978.51
2018-03-18T11:46:16.558Z,978.44
2018-03-18T11:47:16.474Z,978.54
2018-03-18T11:48:16.390Z,978.53
2018-03-18T11:49:16.307Z,978.59
2018-03-18T11:50:16.222Z,978.60
2018-03-18T11:51:16.138Z,978.61
2018-03-18T11:52:16.095Z,978.59
2018-03-18T11:53:15.970Z,978.68
2018-03-18T11:54:15.886Z,978.60
2018-03-18T11:55:15.802Z,978.65
2018-03-18T11:56:15.717Z,978.62
2018-03-18T11:57:15.637Z,978.66
2018-03-18T11:58:15.550Z,978.76
2018-03-18T11:59:15.466Z,978.65
2018-03-18T12:00:15.382Z,978.64
2018-03-18T12:01:15.298Z,978.70
2018-03-18T12:02:15.213Z,978.70
2018-03-18T12:03:15.128Z,978.68
2018-03-18T12:04:15.043Z,978.66
2018-03-18T12:05:14.959Z,978.62
2018-03-18T12:06:14.881Z,978.67
2018-03-18T12:07:14.794Z,978.70
2018-03-18T12:08:14.706Z,978.73
2018-03-18T12:09:14.623Z,978.73
2018-03-18T12:10:14.538Z,978.63
2018-03-18T12:11:14.452Z,978.69
2018-03-18T12:12:14.368Z,978.58
2018-03-18T12:13:14.284Z,978.70
2018-03-18T12:14:14.200Z,978.57
2018-03-18T12:15:14.114Z,978.65
2018-03-18T12:16:14.030Z,978.59
2018-03-18T12:17:13.946Z,978.66
2018-03-18T12:18:13.861Z,978.60
2018-03-18T12:19:13.775Z,978.63
2018-03-18T12:20:13.692Z,978.62
2018-03-18T12:21:13.607Z,978.62
2018-03-18T12:22:13.523Z,978.60
2018-03-18T12:23:13.438Z,978.64
2018-03-18T12:24:13.353Z,978.63
2018-03-18T12:25:13.269Z,978.63
2018-03-18T12:26:13.185Z,978.64
2018-03-18T12:27:13.101Z,978.59